createdAt,value
2023-03-06T00:00:00.712Z,70.8
2023-03-06T00:01:17.694Z,71
2023-03-06T00:02:34.704Z,71.4
2023-03-06T00:03:51.857Z,72
2023-03-06T00:05:08.703Z,72.7
2023-03-06T00:06:25.725Z,73.5
2023-03-06T00:07:42.678Z,74.2
2023-03-06T00:08:59.687Z,74.5
2023-03-06T00:10:16.752Z,74.4
2023-03-06T00:11:33.706Z,74.2
2023-03-06T00:12:50.698Z,73.9
2023-03-06T00:14:07.690Z,73.6
2023-03-06T00:15:24.863Z,73.3
2023-03-06T00:16:41.700Z,73
2023-03-06T00:17:58.731Z,72.8
2023-03-06T00:19:15.699Z,72.8
2023-03-06T00:20:32.735Z,72.7
2023-03-06T00:21:49.727Z,72.6
2023-03-06T00:23:06.729Z,72.5
2023-03-06T00:24:23.753Z,72.3
2023-03-06T00:25:40.734Z,72.3
2023-03-06T00:26:57.716Z,72.3
2023-03-06T00:28:14.751Z,72.4
2023-03-06T00:29:31.714Z,72.2
2023-03-06T00:30:48.797Z,71.9
2023-03-06T00:32:05.771Z,71.7
2023-03-06T00:33:22.729Z,71.5
2023-03-06T00:34:39.727Z,71.2
2023-03-06T00:35:56.784Z,71.1
2023-03-06T00:37:13.807Z,71
2023-03-06T00:38:30.721Z,71
2023-03-06T00:39:47.726Z,70.9
2023-03-06T00:41:04.728Z,71
2023-03-06T00:42:21.779Z,70.9
2023-03-06T00:43:38.759Z,70.8
2023-03-06T00:44:55.840Z,70.7
2023-03-06T00:46:12.844Z,70.7
2023-03-06T00:47:29.751Z,70.8
2023-03-06T00:48:46.748Z,71.1
2023-03-06T00:50:03.791Z,71.3
2023-03-06T00:51:20.829Z,71.8
2023-03-06T00:52:37.799Z,71.9
2023-03-06T00:53:54.754Z,71.9
2023-03-06T00:55:11.784Z,72.4
2023-03-06T00:56:28.804Z,73.1
2023-03-06T00:57:45.832Z,73.9
2023-03-06T00:59:02.840Z,74.7
2023-03-06T01:00:19.768Z,75.4
2023-03-06T01:01:36.850Z,76
2023-03-06T01:02:53.820Z,76.5
2023-03-06T01:04:10.750Z,76.8
2023-03-06T01:05:27.773Z,77.3
2023-03-06T01:06:44.784Z,77.5
2023-03-06T01:08:01.855Z,77.5
2023-03-06T01:09:18.811Z,77
2023-03-06T01:10:35.861Z,76.6
2023-03-06T01:11:52.835Z,76.1
2023-03-06T01:13:09.770Z,75.7
2023-03-06T01:14:26.887Z,75.3
2023-03-06T01:15:43.773Z,74.6
2023-03-06T01:17:00.796Z,74.2
2023-03-06T01:18:17.790Z,74
2023-03-06T01:19:34.810Z,73.7
2023-03-06T01:20:51.798Z,73.7
2023-03-06T01:22:08.755Z,73.7
2023-03-06T01:23:25.798Z,73.8
2023-03-06T01:24:42.778Z,73.9
2023-03-06T01:25:59.810Z,74.2
2023-03-06T01:27:17.041Z,74.5
2023-03-06T01:28:33.816Z,74.8
2023-03-06T01:29:50.786Z,74.7
2023-03-06T01:31:08.145Z,74.7
2023-03-06T01:32:24.916Z,74.8
2023-03-06T01:33:41.814Z,74.6
2023-03-06T01:34:58.792Z,74.6
2023-03-06T01:36:15.803Z,74.6
2023-03-06T01:37:32.790Z,74.8
2023-03-06T01:38:49.766Z,74.7
2023-03-06T01:40:06.803Z,74.7
2023-03-06T01:41:23.814Z,75.1
2023-03-06T01:42:40.825Z,75.6
2023-03-06T01:43:57.828Z,76.2
2023-03-06T01:45:14.818Z,76.8
2023-03-06T01:46:31.874Z,77.1
2023-03-06T01:47:48.858Z,77.1
2023-03-06T01:49:05.839Z,77.2
2023-03-06T01:50:22.810Z,77.3
2023-03-06T01:51:39.991Z,77.4
2023-03-06T01:52:56.823Z,78.1
2023-03-06T01:54:13.867Z,78.9
2023-03-06T01:55:30.882Z,79.8
2023-03-06T01:56:47.857Z,80.9
2023-03-06T01:58:04.855Z,81.7
2023-03-06T01:59:21.818Z,82
2023-03-06T02:00:38.818Z,82.3
2023-03-06T02:01:55.982Z,82.6
2023-03-06T02:03:12.964Z,82.6
2023-03-06T02:04:29.835Z,82.4
2023-03-06T02:05:46.829Z,82.2
2023-03-06T02:07:03.852Z,81.8
2023-03-06T02:08:20.845Z,81.3
2023-03-06T02:09:37.859Z,80.9
2023-03-06T02:10:54.833Z,80.4
2023-03-06T02:12:11.917Z,79.7
2023-03-06T02:13:28.840Z,79
2023-03-06T02:14:45.869Z,78.6
2023-03-06T02:16:02.890Z,78.7
2023-03-06T02:17:19.855Z,79.1
2023-03-06T02:18:36.890Z,79.6
2023-03-06T02:19:53.862Z,80.1
2023-03-06T02:21:10.875Z,80.6
2023-03-06T02:22:27.840Z,81.1
2023-03-06T02:23:44.844Z,81.3
2023-03-06T02:25:01.930Z,81.5
2023-03-06T02:26:18.860Z,81.5
2023-03-06T02:27:35.991Z,81.5
2023-03-06T02:28:52.850Z,81.4
2023-03-06T02:30:09.956Z,81.2
2023-03-06T02:31:26.860Z,80.9
2023-03-06T02:32:43.904Z,81.1
2023-03-06T02:34:00.919Z,81.6
2023-03-06T02:35:17.939Z,81.8
2023-03-06T02:36:35.630Z,81.9
2023-03-06T02:37:52.980Z,81.6
2023-03-06T02:39:09.893Z,81.6
2023-03-06T02:40:26.986Z,82.1
2023-03-06T02:41:43.891Z,82.4
2023-03-06T02:43:00.944Z,82.4
2023-03-06T02:44:17.953Z,82
2023-03-06T02:45:35.706Z,82.2
2023-03-06T02:46:52.940Z,82.5
2023-03-06T02:48:09.966Z,83
2023-03-06T02:49:26.953Z,83.3
2023-03-06T02:50:43.962Z,83.9
2023-03-06T02:52:00.882Z,84.3
2023-03-06T02:53:17.984Z,85
2023-03-06T02:54:34.895Z,85
2023-03-06T02:55:51.988Z,85
2023-03-06T02:57:08.939Z,85.3
2023-03-06T02:58:26.655Z,85.1
2023-03-06T02:59:44.280Z,84.6
2023-03-06T03:01:01.015Z,83.9
2023-03-06T03:02:17.963Z,84.2
2023-03-06T03:03:34.976Z,84.4
2023-03-06T03:04:51.977Z,84.2
2023-03-06T03:06:08.973Z,84.5
2023-03-06T03:07:25.947Z,84.3
2023-03-06T03:08:42.901Z,84.2
2023-03-06T03:09:59.896Z,83.8
2023-03-06T03:11:16.912Z,83.6
2023-03-06T03:12:34.031Z,83.4
2023-03-06T03:13:50.961Z,83
2023-03-06T03:15:07.906Z,82.5
2023-03-06T03:16:24.904Z,82
2023-03-06T03:17:42.169Z,81.4
2023-03-06T03:18:59.144Z,81.6
2023-03-06T03:20:15.994Z,81.7
2023-03-06T03:21:32.914Z,82
2023-03-06T03:22:49.967Z,82.2
2023-03-06T03:24:06.937Z,82.3
2023-03-06T03:25:23.923Z,82.4
2023-03-06T03:26:40.973Z,82.3
2023-03-06T03:27:57.967Z,82
2023-03-06T03:29:14.963Z,81.7
2023-03-06T03:30:31.941Z,81.4
2023-03-06T03:31:48.940Z,81.2
2023-03-06T03:33:05.945Z,81.2
2023-03-06T03:34:22.943Z,81.3
2023-03-06T03:35:39.983Z,81.3
2023-03-06T03:36:57.700Z,81.2
2023-03-06T03:38:14.960Z,81.6
2023-03-06T03:39:32.063Z,82.2
2023-03-06T03:40:48.961Z,82.9
2023-03-06T03:42:05.960Z,83.1
2023-03-06T03:43:23.002Z,83.1
2023-03-06T03:44:39.957Z,82.6
2023-03-06T03:45:56.992Z,82.6
2023-03-06T03:47:13.968Z,82.6
2023-03-06T03:48:31.027Z,82.4
2023-03-06T03:49:48.514Z,82.7
2023-03-06T03:51:04.980Z,82.8
2023-03-06T03:52:21.968Z,82.9
2023-03-06T03:53:39.011Z,82.8
2023-03-06T03:54:55.967Z,82.7
2023-03-06T03:56:12.978Z,82.7
2023-03-06T03:57:29.982Z,82.8
2023-03-06T03:58:47.020Z,82.7
2023-03-06T04:00:04.004Z,82.3
2023-03-06T04:01:20.992Z,82.1
2023-03-06T04:02:38.044Z,82.3
2023-03-06T04:03:55.069Z,82.8
2023-03-06T04:05:12.066Z,83
2023-03-06T04:06:29.000Z,83.3
2023-03-06T04:07:46.001Z,83.5
2023-03-06T04:09:03.048Z,83.7
2023-03-06T04:10:19.988Z,83.8
2023-03-06T04:11:36.998Z,83.7
2023-03-06T04:12:54.003Z,83.5
2023-03-06T04:14:11.043Z,83.3
2023-03-06T04:15:28.010Z,83.4
2023-03-06T04:16:44.981Z,83.7
2023-03-06T04:18:01.981Z,83.9
2023-03-06T04:19:19.055Z,84.1
2023-03-06T04:20:35.978Z,84.6
2023-03-06T04:21:53.007Z,85
2023-03-06T04:23:10.004Z,85.5
2023-03-06T04:24:27.048Z,85.6
2023-03-06T04:25:43.996Z,86
2023-03-06T04:27:01.797Z,86.5
2023-03-06T04:28:19.097Z,86.7
2023-03-06T04:29:36.079Z,86.4
2023-03-06T04:30:53.021Z,85.8
2023-03-06T04:32:10.040Z,85.9
2023-03-06T04:33:27.106Z,85.6
2023-03-06T04:34:44.013Z,85.2
2023-03-06T04:36:01.003Z,84.2
2023-03-06T04:37:18.065Z,82.9
2023-03-06T04:38:35.082Z,82
2023-03-06T04:39:52.051Z,81.3
2023-03-06T04:41:09.009Z,80.3
2023-03-06T04:42:26.032Z,80.1
2023-03-06T04:43:43.077Z,80.3
2023-03-06T04:45:00.026Z,80.9
2023-03-06T04:46:17.055Z,81.5
2023-03-06T04:47:34.053Z,82
2023-03-06T04:48:51.094Z,82.6
2023-03-06T04:50:08.018Z,83.5
2023-03-06T04:51:25.106Z,83.4
2023-03-06T04:52:42.051Z,82.9
2023-03-06T04:53:59.083Z,82.5
2023-03-06T04:55:16.279Z,82.8
2023-03-06T04:56:33.054Z,82.9
2023-03-06T04:57:50.051Z,83.2
2023-03-06T04:59:07.078Z,83.7
2023-03-06T05:00:24.061Z,83.4
2023-03-06T05:01:41.047Z,83.3
2023-03-06T05:02:58.075Z,82.6
2023-03-06T05:04:15.099Z,82.4
2023-03-06T05:05:32.052Z,82.6
2023-03-06T05:06:49.046Z,82.3
2023-03-06T05:08:06.080Z,82.1
2023-03-06T05:09:23.221Z,82.3
2023-03-06T05:10:40.467Z,82.5
2023-03-06T05:11:57.094Z,82.4
2023-03-06T05:13:14.119Z,82
2023-03-06T05:14:31.116Z,82
2023-03-06T05:15:48.171Z,82.4
2023-03-06T05:17:05.137Z,82.6
2023-03-06T05:18:22.060Z,83
2023-03-06T05:19:39.061Z,83.2
2023-03-06T05:20:56.100Z,83.5
2023-03-06T05:22:13.054Z,83.2
2023-03-06T05:23:30.136Z,83.2
2023-03-06T05:24:47.090Z,83.1
2023-03-06T05:26:04.079Z,82.7
2023-03-06T05:27:21.127Z,82.7
2023-03-06T05:28:38.078Z,82.6
2023-03-06T05:29:55.163Z,82.4
2023-03-06T05:31:12.099Z,82.5
2023-03-06T05:32:29.116Z,82.5
2023-03-06T05:33:46.074Z,82.7
2023-03-06T05:35:03.131Z,82.7
2023-03-06T05:36:20.164Z,82.4
2023-03-06T05:37:37.158Z,82.2
2023-03-06T05:38:55.032Z,82
2023-03-06T05:40:11.101Z,81.8
2023-03-06T05:41:28.126Z,81.4
2023-03-06T05:42:45.110Z,81.1
2023-03-06T05:44:02.149Z,80.7
2023-03-06T05:45:19.112Z,80.5
2023-03-06T05:46:36.143Z,80.2
2023-03-06T05:47:53.117Z,79.8
2023-03-06T05:49:10.153Z,79.7
2023-03-06T05:50:27.122Z,79.7
2023-03-06T05:51:44.151Z,80.1
2023-03-06T05:53:01.105Z,80.2
2023-03-06T05:54:18.233Z,80.1
2023-03-06T05:55:35.831Z,80.4
2023-03-06T05:56:53.129Z,80.8
2023-03-06T05:58:10.121Z,81.4
2023-03-06T05:59:27.112Z,81.9
2023-03-06T06:00:44.420Z,82.3
2023-03-06T06:02:01.261Z,82.4
2023-03-06T06:03:18.168Z,82.6
2023-03-06T06:04:35.138Z,82.5
2023-03-06T06:05:52.225Z,82
2023-03-06T06:07:09.120Z,81.7
2023-03-06T06:08:26.160Z,81.4
2023-03-06T06:09:43.152Z,81.1
2023-03-06T06:11:00.161Z,80.6
2023-03-06T06:12:17.136Z,80.1
2023-03-06T06:13:34.169Z,79.9
2023-03-06T06:14:51.197Z,79.8
2023-03-06T06:16:08.239Z,79.5
2023-03-06T06:17:25.179Z,79.1
2023-03-06T06:18:42.280Z,79
2023-03-06T06:19:59.195Z,78.9
2023-03-06T06:21:16.144Z,78.7
2023-03-06T06:22:33.141Z,78.9
2023-03-06T06:23:50.136Z,79
2023-03-06T06:25:07.212Z,78.7
2023-03-06T06:26:24.155Z,78.8
2023-03-06T06:27:41.147Z,78.7
2023-03-06T06:29:00.092Z,78.7
2023-03-06T06:30:15.409Z,78.3
2023-03-06T06:31:32.193Z,78.3
2023-03-06T06:32:49.170Z,78.2
2023-03-06T06:34:06.196Z,77.8
2023-03-06T06:35:23.351Z,77.6
2023-03-06T06:36:40.176Z,77.5
2023-03-06T06:37:57.179Z,77.4
2023-03-06T06:39:14.170Z,76.8
2023-03-06T06:40:31.226Z,76.7
2023-03-06T06:41:59.714Z,77
2023-03-06T06:43:05.218Z,77.6
2023-03-06T06:44:22.227Z,77.8
2023-03-06T06:45:39.171Z,78.1
2023-03-06T06:47:21.618Z,78.2
2023-03-06T06:48:13.226Z,78.6
2023-03-06T06:49:30.174Z,78.5
2023-03-06T06:50:47.197Z,78.7
2023-03-06T06:52:04.292Z,79.1
2023-03-06T06:53:21.204Z,79.1
2023-03-06T06:54:38.225Z,79
2023-03-06T06:55:55.221Z,78.8
2023-03-06T06:57:12.258Z,78.2
2023-03-06T06:58:29.315Z,77.9
2023-03-06T06:59:46.192Z,77.5
2023-03-06T07:01:03.206Z,76.9
2023-03-06T07:02:20.351Z,76.6
2023-03-06T07:03:37.248Z,76.3
2023-03-06T07:05:03.388Z,76
2023-03-06T07:06:11.197Z,75.3
2023-03-06T07:07:28.219Z,74.7
2023-03-06T07:08:45.199Z,74.1
2023-03-06T07:10:02.276Z,74.1
2023-03-06T07:11:19.266Z,73.8
2023-03-06T07:12:36.229Z,73.3
2023-03-06T07:13:53.207Z,72.9
2023-03-06T07:15:10.272Z,73.1
2023-03-06T07:16:27.214Z,73.1
2023-03-06T07:17:44.381Z,72.9
2023-03-06T07:19:01.307Z,72.5
2023-03-06T07:20:18.264Z,72.1
2023-03-06T07:21:35.251Z,71.9
2023-03-06T07:22:52.231Z,71.5
2023-03-06T07:24:09.211Z,71.4
2023-03-06T07:25:26.248Z,71.3
2023-03-06T07:26:43.286Z,70.9
2023-03-06T07:28:00.633Z,70.5
2023-03-06T07:29:17.296Z,70.7
2023-03-06T07:30:34.363Z,70.6
2023-03-06T07:31:51.229Z,70.4
2023-03-06T07:33:08.257Z,70.5
2023-03-06T07:34:25.274Z,70.8
2023-03-06T07:35:42.331Z,70.8
2023-03-06T07:36:59.364Z,70.6
2023-03-06T07:38:16.263Z,70.2
2023-03-06T07:39:33.367Z,70.2
2023-03-06T07:40:50.889Z,70
2023-03-06T07:42:07.322Z,69.9
2023-03-06T07:43:24.321Z,70.3
2023-03-06T07:44:41.310Z,70.4
2023-03-06T07:45:58.377Z,70.2
2023-03-06T07:47:15.260Z,70.6
2023-03-06T07:48:32.265Z,70.8
2023-03-06T07:49:49.275Z,70.8
2023-03-06T07:51:06.353Z,70.7
2023-03-06T07:52:23.301Z,71
2023-03-06T07:53:40.289Z,70.4
2023-03-06T07:54:57.277Z,70
2023-03-06T07:56:14.345Z,69.9
2023-03-06T07:57:31.353Z,70.2
2023-03-06T07:58:48.360Z,69.5
2023-03-06T08:00:05.314Z,68.6
2023-03-06T08:01:22.304Z,68.3
2023-03-06T08:02:39.373Z,68.1
2023-03-06T08:03:56.353Z,68
2023-03-06T08:05:13.396Z,67.6
2023-03-06T08:06:30.315Z,67.1
2023-03-06T08:07:47.320Z,66.9
2023-03-06T08:09:04.314Z,67.1
2023-03-06T08:10:21.319Z,66.9
2023-03-06T08:11:38.331Z,65.8
2023-03-06T08:12:55.402Z,65.1
2023-03-06T08:14:12.309Z,64.6
2023-03-06T08:15:29.365Z,64.3
2023-03-06T08:16:46.375Z,63.6
2023-03-06T08:18:03.356Z,63.6
2023-03-06T08:19:20.427Z,62.7
2023-03-06T08:20:37.343Z,62.6
2023-03-06T08:21:54.301Z,62.4
2023-03-06T08:23:11.775Z,62
2023-03-06T08:24:28.311Z,61.2
2023-03-06T08:25:45.375Z,60.5
2023-03-06T08:27:05.058Z,60.5
2023-03-06T08:28:22.418Z,60.6
2023-03-06T08:29:39.516Z,60.5
2023-03-06T08:30:56.336Z,60.9
2023-03-06T08:32:13.400Z,60.8
2023-03-06T08:33:30.337Z,61.5
2023-03-06T08:34:48.110Z,62.3
2023-03-06T08:36:04.337Z,62.5
2023-03-06T08:37:21.521Z,63
2023-03-06T08:38:38.920Z,63.6
2023-03-06T08:39:55.423Z,64.3
2023-03-06T08:41:12.348Z,64.9
2023-03-06T08:42:29.448Z,64.9
2023-03-06T08:43:46.413Z,64.6
2023-03-06T08:45:03.364Z,64.3
2023-03-06T08:46:20.376Z,64.1
2023-03-06T08:47:37.582Z,63.8
2023-03-06T08:48:54.369Z,63.8
2023-03-06T08:50:11.349Z,63.7
2023-03-06T08:51:28.962Z,63.2
2023-03-06T08:52:46.364Z,63
2023-03-06T08:54:03.387Z,62.8
2023-03-06T08:55:20.400Z,63.2
2023-03-06T08:56:37.334Z,63.2
2023-03-06T08:57:54.386Z,62.6
2023-03-06T08:59:11.467Z,61.8
2023-03-06T09:00:30.946Z,61.7
2023-03-06T09:01:48.430Z,61.9
2023-03-06T09:03:05.393Z,61.8
2023-03-06T09:04:22.331Z,62.1
2023-03-06T09:05:39.364Z,62.7
2023-03-06T09:06:56.383Z,62.8
2023-03-06T09:08:13.436Z,63.2
2023-03-06T09:09:30.398Z,64
2023-03-06T09:10:47.480Z,64.5
2023-03-06T09:12:04.427Z,64.2
2023-03-06T09:13:21.450Z,63.8
2023-03-06T09:14:38.399Z,64.4
2023-03-06T09:15:55.634Z,64.7
2023-03-06T09:17:12.681Z,64.7
2023-03-06T09:18:29.428Z,63.9
2023-03-06T09:19:46.483Z,63.4
2023-03-06T09:21:03.433Z,62.8
2023-03-06T09:22:20.394Z,62.3
2023-03-06T09:23:37.425Z,62.1
2023-03-06T09:24:54.418Z,61.1
2023-03-06T09:26:11.451Z,60.2
2023-03-06T09:27:28.399Z,59.9
2023-03-06T09:28:45.406Z,60
2023-03-06T09:30:02.447Z,59.2
2023-03-06T09:31:19.600Z,58.7
2023-03-06T09:32:36.530Z,59.5
2023-03-06T09:33:53.432Z,59.7
2023-03-06T09:35:10.416Z,59.6
2023-03-06T09:36:27.405Z,59.8
2023-03-06T09:37:44.423Z,59.4
2023-03-06T09:39:01.456Z,59.8
2023-03-06T09:40:18.386Z,60
2023-03-06T09:41:35.436Z,60.1
2023-03-06T09:42:52.424Z,61
2023-03-06T09:44:09.468Z,61
2023-03-06T09:45:26.449Z,60.6
2023-03-06T09:46:43.414Z,60.6
2023-03-06T09:48:00.413Z,60.1
2023-03-06T09:49:17.580Z,60.3
2023-03-06T09:50:34.448Z,60.6
2023-03-06T09:51:51.530Z,60.5
2023-03-06T09:53:08.436Z,60.2
2023-03-06T09:54:25.593Z,58.9
2023-03-06T09:55:42.602Z,58
2023-03-06T09:56:59.523Z,57.5
2023-03-06T09:58:16.469Z,56.7
2023-03-06T09:59:33.606Z,55.9
2023-03-06T10:00:50.508Z,55.4
2023-03-06T10:02:07.615Z,55.3
2023-03-06T10:03:24.473Z,54.8
2023-03-06T10:04:41.528Z,54.8
2023-03-06T10:05:58.829Z,55
2023-03-06T10:07:15.814Z,54.8
2023-03-06T10:08:32.506Z,54.5
2023-03-06T10:09:49.532Z,53.9
2023-03-06T10:11:06.516Z,53.5
2023-03-06T10:12:24.861Z,53.4
2023-03-06T10:13:40.495Z,53.6
2023-03-06T10:14:57.502Z,54.4
2023-03-06T10:16:14.575Z,54.4
2023-03-06T10:17:31.543Z,54.4
2023-03-06T10:18:48.515Z,54.5
2023-03-06T10:20:05.470Z,54.7
2023-03-06T10:21:22.462Z,54.9
2023-03-06T10:22:39.556Z,54.9
2023-03-06T10:23:56.486Z,55
2023-03-06T10:25:13.522Z,55
2023-03-06T10:26:30.636Z,54.9
2023-03-06T10:27:47.520Z,54.7
2023-03-06T10:29:05.100Z,54.6
2023-03-06T10:30:22.661Z,54
2023-03-06T10:31:39.499Z,54.3
2023-03-06T10:32:56.568Z,54.5
2023-03-06T10:34:13.560Z,54
2023-03-06T10:35:31.024Z,54.2
2023-03-06T10:36:47.587Z,55.2
2023-03-06T10:38:04.519Z,56
2023-03-06T10:39:21.538Z,56.4
2023-03-06T10:40:38.538Z,56.9
2023-03-06T10:41:55.506Z,56.8
2023-03-06T10:43:12.573Z,57
2023-03-06T10:44:29.472Z,57
2023-03-06T10:45:49.123Z,57
2023-03-06T10:47:03.570Z,57
2023-03-06T10:48:20.516Z,57.3
2023-03-06T10:49:37.539Z,56.7
2023-03-06T10:50:54.510Z,56
2023-03-06T10:52:11.524Z,56.3
2023-03-06T10:53:28.514Z,55.6
2023-03-06T10:54:45.522Z,55.3
2023-03-06T10:56:02.534Z,54.7
2023-03-06T10:57:19.540Z,54.4
2023-03-06T10:58:36.599Z,54.1
2023-03-06T10:59:53.544Z,53.9
2023-03-06T11:01:10.538Z,53.3
2023-03-06T11:02:27.600Z,54
2023-03-06T11:03:44.605Z,53.2
2023-03-06T11:05:01.569Z,53
2023-03-06T11:06:18.534Z,52.9
2023-03-06T11:07:35.594Z,53.1
2023-03-06T11:08:52.582Z,53.1
2023-03-06T11:10:09.566Z,52.2
2023-03-06T11:11:37.015Z,52.2
2023-03-06T11:12:43.548Z,52.8
2023-03-06T11:14:00.572Z,52.8
2023-03-06T11:15:17.541Z,52.4
2023-03-06T11:16:34.633Z,51.7
2023-03-06T11:17:51.685Z,51.5
2023-03-06T11:19:08.559Z,51.9
2023-03-06T11:20:25.563Z,51.6
2023-03-06T11:21:42.531Z,51.1
2023-03-06T11:22:59.600Z,51.4
2023-03-06T11:24:16.566Z,51.9
2023-03-06T11:25:33.598Z,52.3
2023-03-06T11:26:51.262Z,52.4
2023-03-06T11:28:07.620Z,52.7
2023-03-06T11:29:24.673Z,53
2023-03-06T11:30:41.542Z,53
2023-03-06T11:31:58.527Z,52.9
2023-03-06T11:33:15.588Z,52.8
2023-03-06T11:34:32.581Z,52.5
2023-03-06T11:35:49.617Z,52.1
2023-03-06T11:37:06.572Z,52.1
2023-03-06T11:38:23.572Z,52.1
2023-03-06T11:39:40.661Z,51.6
2023-03-06T11:40:57.581Z,51.5
2023-03-06T11:42:14.623Z,51.8
2023-03-06T11:43:31.601Z,52.2
2023-03-06T11:44:48.588Z,52.1
2023-03-06T11:46:05.577Z,52.3
2023-03-06T11:47:22.590Z,53.1
2023-03-06T11:48:39.624Z,53.3
2023-03-06T11:49:56.691Z,53.3
2023-03-06T11:51:13.633Z,53.5
2023-03-06T11:52:30.626Z,53.7
2023-03-06T11:53:50.231Z,54.2
2023-03-06T11:55:07.625Z,54.3
2023-03-06T11:56:24.589Z,53.8
2023-03-06T11:57:41.590Z,52.8
2023-03-06T11:58:58.648Z,51.6
2023-03-06T12:00:15.586Z,50.7
2023-03-06T12:01:32.627Z,50.8
2023-03-06T12:02:49.588Z,50.9
2023-03-06T12:04:06.641Z,51.3
2023-03-06T12:05:23.688Z,51.9
2023-03-06T12:06:40.597Z,52.2
2023-03-06T12:07:57.582Z,52.3
2023-03-06T12:09:14.651Z,52.9
2023-03-06T12:10:31.625Z,53.3
2023-03-06T12:11:48.648Z,53.3
2023-03-06T12:13:05.613Z,53
2023-03-06T12:14:22.608Z,52.8
2023-03-06T12:15:39.629Z,52.3
2023-03-06T12:16:56.670Z,52.2
2023-03-06T12:18:13.935Z,52.2
2023-03-06T12:19:30.651Z,52.5
2023-03-06T12:20:47.624Z,52.4
2023-03-06T12:22:04.609Z,52.2
2023-03-06T12:23:21.638Z,52.2
2023-03-06T12:24:38.617Z,52.3
2023-03-06T12:25:55.681Z,52.4
2023-03-06T12:27:12.637Z,52.7
2023-03-06T12:28:29.688Z,52.7
2023-03-06T12:29:46.659Z,52.5
2023-03-06T12:31:03.659Z,52.4
2023-03-06T12:32:20.650Z,51.5
2023-03-06T12:33:37.651Z,51.5
2023-03-06T12:34:54.643Z,51
2023-03-06T12:36:11.652Z,50.3
2023-03-06T12:37:28.638Z,50
2023-03-06T12:38:45.666Z,49.8
2023-03-06T12:40:02.728Z,49.7
2023-03-06T12:41:19.644Z,49.2
2023-03-06T12:42:36.692Z,48.7
2023-03-06T12:43:53.697Z,48.9
2023-03-06T12:45:10.681Z,48.5
2023-03-06T12:46:27.680Z,48.1
2023-03-06T12:47:44.699Z,48.2
2023-03-06T12:49:01.669Z,48.4
2023-03-06T12:50:18.792Z,48.7
2023-03-06T12:51:35.687Z,48.9
2023-03-06T12:52:52.669Z,49
2023-03-06T12:54:09.659Z,49.4
2023-03-06T12:55:26.645Z,49.8
2023-03-06T12:56:43.691Z,49.8
2023-03-06T12:58:00.751Z,50.1
2023-03-06T12:59:17.690Z,50.4
2023-03-06T13:00:34.681Z,51
2023-03-06T13:01:51.834Z,51.5
2023-03-06T13:03:08.749Z,52.1
2023-03-06T13:04:25.696Z,52
2023-03-06T13:05:42.699Z,51.4
2023-03-06T13:06:59.679Z,52.1
2023-03-06T13:08:16.727Z,54.4
2023-03-06T13:09:33.683Z,57.2
2023-03-06T13:10:50.701Z,60.8
2023-03-06T13:12:07.719Z,63.8
2023-03-06T13:13:24.744Z,66.3
2023-03-06T13:14:48.601Z,68
2023-03-06T13:15:58.719Z,69.6
2023-03-06T13:17:15.725Z,70.9
2023-03-06T13:18:32.722Z,71.9
2023-03-06T13:19:49.734Z,72.9
2023-03-06T13:21:06.716Z,74
2023-03-06T13:22:23.717Z,75.1
2023-03-06T13:23:41.577Z,76
2023-03-06T13:25:03.567Z,76.9
2023-03-06T13:26:15.728Z,77.3
2023-03-06T13:27:32.704Z,77.8
2023-03-06T13:28:49.716Z,78.3
2023-03-06T13:30:06.772Z,78.4
2023-03-06T13:31:27.416Z,78.5
2023-03-06T13:32:40.766Z,78.6
2023-03-06T13:33:57.737Z,78.9
2023-03-06T13:35:14.807Z,79.4
2023-03-06T13:36:31.746Z,80.3
2023-03-06T13:37:48.728Z,81.2
2023-03-06T13:39:05.718Z,81.5
2023-03-06T13:40:22.785Z,81.8
2023-03-06T13:41:39.779Z,81.8
2023-03-06T13:42:56.793Z,82.1
2023-03-06T13:44:13.714Z,82.7
2023-03-06T13:45:31.157Z,82.7
2023-03-06T13:46:47.751Z,82.6
2023-03-06T13:48:33.534Z,83
2023-03-06T13:49:21.744Z,83.2
2023-03-06T13:50:38.869Z,83.1
2023-03-06T13:51:55.891Z,83.5
2023-03-06T13:53:13.010Z,83.8
2023-03-06T13:54:30.030Z,84.3
2023-03-06T13:55:46.972Z,84.7
2023-03-06T13:57:03.763Z,84.6
2023-03-06T13:58:20.759Z,84.3
2023-03-06T13:59:37.755Z,83.9
2023-03-06T14:00:54.792Z,84
2023-03-06T14:02:11.863Z,84.3
2023-03-06T14:03:28.802Z,84.6
2023-03-06T14:04:45.772Z,84.5
2023-03-06T14:06:02.768Z,84.3
2023-03-06T14:07:19.844Z,84.8
2023-03-06T14:08:36.773Z,85
2023-03-06T14:09:53.771Z,84.7
2023-03-06T14:11:10.793Z,84.4
2023-03-06T14:12:27.854Z,83.9
2023-03-06T14:13:47.303Z,83.8
2023-03-06T14:15:01.803Z,83.8
2023-03-06T14:16:19.565Z,83.7
2023-03-06T14:17:36.774Z,83.3
2023-03-06T14:18:53.778Z,83.4
2023-03-06T14:20:10.849Z,84
2023-03-06T14:21:27.870Z,84.7
2023-03-06T14:22:44.893Z,85.1
2023-03-06T14:24:01.827Z,84.6
2023-03-06T14:25:18.852Z,83.9
2023-03-06T14:26:35.899Z,83.7
2023-03-06T14:27:54.907Z,84.1
2023-03-06T14:29:09.801Z,84.3
2023-03-06T14:30:26.825Z,84
2023-03-06T14:31:43.857Z,83.7
2023-03-06T14:33:00.847Z,82.9
2023-03-06T14:34:17.832Z,81.9
2023-03-06T14:35:34.846Z,80.7
2023-03-06T14:36:51.825Z,80.4
2023-03-06T14:38:08.876Z,79.6
2023-03-06T14:39:25.782Z,79
2023-03-06T14:40:42.784Z,78.3
2023-03-06T14:41:59.849Z,78.5
2023-03-06T14:43:16.882Z,78.7
2023-03-06T14:44:33.832Z,79.2
2023-03-06T14:45:50.851Z,80
2023-03-06T14:47:07.817Z,80.5
2023-03-06T14:48:24.867Z,80.5
2023-03-06T14:49:41.880Z,80.7
2023-03-06T14:50:58.932Z,80.8
2023-03-06T14:52:15.831Z,80.4
2023-03-06T14:53:32.901Z,79.6
2023-03-06T14:54:49.874Z,78.9
2023-03-06T14:56:06.854Z,77.4
2023-03-06T14:57:23.834Z,76.2
2023-03-06T14:58:40.833Z,75.8
2023-03-06T14:59:57.840Z,75.2
2023-03-06T15:01:14.924Z,74.3
2023-03-06T15:02:31.892Z,73.4
2023-03-06T15:03:48.913Z,72.3
2023-03-06T15:05:05.871Z,70.7
2023-03-06T15:06:22.942Z,70.3
2023-03-06T15:07:39.825Z,68.9
2023-03-06T15:08:56.921Z,67.8
2023-03-06T15:10:13.891Z,67.4
2023-03-06T15:11:30.911Z,67.2
2023-03-06T15:12:47.820Z,67.2
2023-03-06T15:14:04.861Z,67.1
2023-03-06T15:15:21.842Z,66.7
2023-03-06T15:16:38.898Z,66.2
2023-03-06T15:17:55.884Z,65.5
2023-03-06T15:19:12.857Z,65.3
2023-03-06T15:20:29.866Z,65.2
2023-03-06T15:21:46.892Z,65.6
2023-03-06T15:23:03.934Z,65.7
2023-03-06T15:24:20.877Z,65.4
2023-03-06T15:25:37.872Z,64.9
2023-03-06T15:26:54.840Z,64.9
2023-03-06T15:28:11.921Z,64.9
2023-03-06T15:29:28.904Z,65
2023-03-06T15:30:45.946Z,65.4
2023-03-06T15:32:03.170Z,65.7
2023-03-06T15:33:19.902Z,67
2023-03-06T15:34:36.878Z,68.3
2023-03-06T15:35:53.966Z,69
2023-03-06T15:37:10.874Z,69.8
2023-03-06T15:38:27.942Z,70.4
2023-03-06T15:39:44.926Z,71.3
2023-03-06T15:41:01.860Z,71.7
2023-03-06T15:42:18.860Z,71.5
2023-03-06T15:43:35.925Z,70.9
2023-03-06T15:44:52.931Z,70.4
2023-03-06T15:46:09.946Z,70
2023-03-06T15:47:26.887Z,69.5
2023-03-06T15:48:43.931Z,69.3
2023-03-06T15:50:01.123Z,69.1
2023-03-06T15:51:18.041Z,68.9
2023-03-06T15:52:34.895Z,68.6
2023-03-06T15:53:53.177Z,68.5
2023-03-06T15:55:08.933Z,68.6
2023-03-06T15:56:25.922Z,68.7
2023-03-06T15:57:42.881Z,68.6
2023-03-06T15:58:59.899Z,68.8
2023-03-06T16:00:26.801Z,69.6
2023-03-06T16:01:36.173Z,70.5
2023-03-06T16:02:51.896Z,71.5
2023-03-06T16:04:09.016Z,72.3
2023-03-06T16:05:25.904Z,72.8
2023-03-06T16:06:42.976Z,73.4
2023-03-06T16:07:59.939Z,73.9
2023-03-06T16:09:16.916Z,74.3
2023-03-06T16:10:34.071Z,74.8
2023-03-06T16:11:50.916Z,75
2023-03-06T16:13:07.989Z,74.7
2023-03-06T16:14:24.935Z,74.5
2023-03-06T16:15:42.093Z,74.6
2023-03-06T16:16:59.062Z,74.7
2023-03-06T16:18:15.949Z,74.9
2023-03-06T16:19:32.947Z,75.3
2023-03-06T16:20:49.917Z,75.4
2023-03-06T16:22:06.974Z,75.5
2023-03-06T16:23:23.936Z,75.6
2023-03-06T16:24:41.002Z,75.6
2023-03-06T16:25:58.044Z,75.4
2023-03-06T16:27:14.947Z,75.2
2023-03-06T16:28:31.964Z,75
2023-03-06T16:29:48.979Z,75.2
2023-03-06T16:31:06.087Z,75.6
2023-03-06T16:32:23.047Z,76.2
2023-03-06T16:33:39.954Z,76.6
2023-03-06T16:34:56.945Z,76.7
2023-03-06T16:36:13.980Z,76.8
2023-03-06T16:37:30.959Z,76.8
2023-03-06T16:38:47.941Z,76.5
2023-03-06T16:40:04.988Z,76.4
2023-03-06T16:41:22.039Z,76.9
2023-03-06T16:42:38.962Z,77.3
2023-03-06T16:43:55.959Z,77.4
2023-03-06T16:45:12.976Z,77.8
2023-03-06T16:46:30.074Z,78.1
2023-03-06T16:47:47.048Z,78.6
2023-03-06T16:49:03.998Z,79
2023-03-06T16:50:20.970Z,79.4
2023-03-06T16:51:37.994Z,79.5
2023-03-06T16:52:54.983Z,79.4
2023-03-06T16:54:12.008Z,79.5
2023-03-06T16:55:28.959Z,79.6
2023-03-06T16:56:46.067Z,79.6
2023-03-06T16:58:03.008Z,79.6
2023-03-06T16:59:20.031Z,79.6
2023-03-06T17:00:37.008Z,79.5
2023-03-06T17:01:54.010Z,79.4
2023-03-06T17:03:11.007Z,79.3
2023-03-06T17:04:28.447Z,79.2
2023-03-06T17:05:45.004Z,78.7
2023-03-06T17:07:02.016Z,78.4
2023-03-06T17:08:19.000Z,78.2
2023-03-06T17:09:36.010Z,77.9
2023-03-06T17:10:53.120Z,77.4
2023-03-06T17:12:10.077Z,77.2